createdAt,value
2018-07-20T00:01:55.993Z,4.07
2018-07-20T00:06:58.988Z,4.90
2018-07-20T00:12:02.001Z,4.90
2018-07-20T00:17:05.026Z,4.50
2018-07-20T00:22:08.062Z,4.60
2018-07-20T00:27:11.044Z,4.70
2018-07-20T00:32:14.035Z,4.47
2018-07-20T00:37:17.049Z,5.27
2018-07-20T00:42:20.053Z,5.20
2018-07-20T00:47:23.051Z,5.47
2018-07-20T00:52:26.116Z,5.33
2018-07-20T00:57:29.166Z,5.33
2018-07-20T01:02:32.144Z,5.90
2018-07-20T01:07:35.120Z,6.47
2018-07-20T01:12:38.121Z,5.60
2018-07-20T01:17:41.113Z,6.17
2018-07-20T01:22:44.156Z,6.40
2018-07-20T01:27:47.335Z,5.40
2018-07-20T01:32:50.377Z,6.20
2018-07-20T01:37:53.386Z,5.50
2018-07-20T01:42:56.398Z,6.20
2018-07-20T01:47:59.417Z,5.80
2018-07-20T01:53:02.475Z,5.77
2018-07-20T01:58:05.802Z,6.60
2018-07-20T02:03:08.895Z,7.30
2018-07-20T02:08:12.208Z,6.33
2018-07-20T02:13:15.270Z,5.87
2018-07-20T02:18:18.261Z,6.00
2018-07-20T02:23:22.342Z,5.77
2018-07-20T02:28:25.311Z,6.63
2018-07-20T02:33:28.310Z,6.00
2018-07-20T02:38:31.393Z,6.10
2018-07-20T02:43:34.423Z,5.90
2018-07-20T02:48:37.465Z,5.97
2018-07-20T02:53:40.540Z,5.00
2018-07-20T02:58:43.566Z,5.57
2018-07-20T03:03:46.585Z,6.00
2018-07-20T03:08:49.912Z,5.00
2018-07-20T03:13:52.951Z,6.07
2018-07-20T03:18:56.026Z,6.00
2018-07-20T03:23:59.078Z,5.80
2018-07-20T03:29:02.154Z,5.93
2018-07-20T03:34:05.146Z,6.33
2018-07-20T03:39:09.201Z,5.83
2018-07-20T03:44:12.264Z,5.50
2018-07-20T03:49:15.270Z,5.67
2018-07-20T03:54:18.349Z,5.33
2018-07-20T03:59:21.412Z,5.60
2018-07-20T04:04:24.474Z,5.13
2018-07-20T04:09:27.542Z,5.90
2018-07-20T04:14:30.513Z,4.90
2018-07-20T04:19:33.501Z,6.00
2018-07-20T04:24:36.537Z,4.80
2018-07-20T04:29:39.632Z,7.17
2018-07-20T04:34:42.690Z,4.70
2018-07-20T04:39:45.714Z,4.90
2018-07-20T04:44:48.742Z,5.03
2018-07-20T04:49:51.784Z,4.30
2018-07-20T04:54:54.794Z,4.40
2018-07-20T04:59:57.774Z,4.80
2018-07-20T05:05:00.758Z,4.20
2018-07-20T05:10:04.257Z,4.70
2018-07-20T05:15:07.319Z,4.30
2018-07-20T05:20:10.405Z,4.00
2018-07-20T05:25:13.450Z,4.37
2018-07-20T05:30:16.649Z,3.60
2018-07-20T05:35:19.662Z,3.57
2018-07-20T05:40:22.894Z,3.80
2018-07-20T05:45:25.895Z,3.77
2018-07-20T05:50:29.084Z,3.60
2018-07-20T05:55:32.093Z,4.07
2018-07-20T06:00:35.149Z,3.60
2018-07-20T06:05:38.238Z,3.20
2018-07-20T06:10:41.244Z,3.40
2018-07-20T06:15:44.302Z,3.80
2018-07-20T06:20:47.506Z,3.83
2018-07-20T06:25:50.562Z,3.60
2018-07-20T06:30:53.593Z,3.63
2018-07-20T06:35:56.646Z,3.10
2018-07-20T06:40:59.675Z,3.67
2018-07-20T06:46:02.725Z,4.20
2018-07-20T06:51:05.945Z,3.20
2018-07-20T06:56:09.036Z,3.10
2018-07-20T07:01:12.066Z,3.00
2018-07-20T07:06:15.080Z,4.50
2018-07-20T07:11:18.149Z,4.03
2018-07-20T07:16:21.195Z,3.80
2018-07-20T07:21:24.244Z,3.67
2018-07-20T07:26:27.274Z,3.27
2018-07-20T07:31:30.321Z,4.07
2018-07-20T07:36:33.410Z,3.00
2018-07-20T07:41:36.450Z,4.37
2018-07-20T07:46:39.485Z,3.10
2018-07-20T07:51:42.577Z,2.97
2018-07-20T07:56:45.885Z,3.77
2018-07-20T08:01:49.067Z,3.47
2018-07-20T08:06:52.062Z,2.90
2018-07-20T08:11:55.082Z,3.63
2018-07-20T08:16:58.092Z,3.13
2018-07-20T08:22:01.114Z,3.10
2018-07-20T08:27:04.160Z,3.67
2018-07-20T08:32:07.266Z,3.63
2018-07-20T08:37:10.362Z,3.87
2018-07-20T08:42:13.426Z,3.40
2018-07-20T08:47:16.539Z,3.60
2018-07-20T08:52:19.647Z,3.23
2018-07-20T08:57:22.674Z,3.57
2018-07-20T09:02:25.701Z,3.30
2018-07-20T09:07:28.805Z,3.70
2018-07-20T09:12:31.879Z,3.90
2018-07-20T09:17:34.948Z,3.43
2018-07-20T09:22:38.077Z,3.20
2018-07-20T09:27:41.130Z,3.73
2018-07-20T09:32:44.219Z,3.90
2018-07-20T09:37:47.263Z,3.67
2018-07-20T09:42:50.283Z,3.93
2018-07-20T09:47:53.433Z,4.60
2018-07-20T09:52:56.451Z,4.00
2018-07-20T09:57:59.535Z,4.70
2018-07-20T10:03:02.564Z,3.80
2018-07-20T10:08:05.698Z,4.00
2018-07-20T10:13:08.765Z,3.60
2018-07-20T10:18:11.866Z,3.20
2018-07-20T10:23:14.910Z,3.83
2018-07-20T10:28:17.926Z,3.90
2018-07-20T10:33:20.989Z,3.93
2018-07-20T10:38:24.096Z,3.20
2018-07-20T10:43:27.134Z,3.60
2018-07-20T10:48:30.164Z,3.40
2018-07-20T10:53:33.345Z,3.80
2018-07-20T10:58:37.410Z,3.50
2018-07-20T11:03:40.918Z,3.70
2018-07-20T11:08:44.681Z,3.70
2018-07-20T11:13:49.815Z,3.30
2018-07-20T11:18:53.863Z,4.07
2018-07-20T11:23:56.906Z,3.57
2018-07-20T11:29:00.006Z,3.60
2018-07-20T11:34:04.282Z,3.63
2018-07-20T11:39:08.788Z,4.33
2018-07-20T11:44:11.873Z,4.40
2018-07-20T11:49:14.859Z,4.20
2018-07-20T11:54:18.668Z,4.13
2018-07-20T11:59:22.169Z,4.47
2018-07-20T12:04:26.153Z,4.30
2018-07-20T12:09:30.004Z,5.30
2018-07-20T12:14:33.506Z,5.13
2018-07-20T12:19:37.093Z,4.20
2018-07-20T12:24:41.137Z,5.40
2018-07-20T12:29:45.557Z,5.20
2018-07-20T12:34:49.762Z,5.80
2018-07-20T12:39:52.993Z,4.67
2018-07-20T12:44:56.046Z,5.60
2018-07-20T12:49:59.074Z,5.60
2018-07-20T12:55:02.124Z,4.70
2018-07-20T13:00:05.286Z,6.10
2018-07-20T13:05:08.369Z,5.53
2018-07-20T13:10:11.471Z,4.80
2018-07-20T13:15:14.636Z,5.57
2018-07-20T13:20:17.675Z,4.70
2018-07-20T13:25:20.692Z,5.90
2018-07-20T13:30:23.708Z,5.50
2018-07-20T13:35:26.835Z,5.33
2018-07-20T13:40:29.905Z,5.73
2018-07-20T13:45:32.938Z,5.43
2018-07-20T13:50:36.020Z,5.53
2018-07-20T13:55:39.050Z,5.93
2018-07-20T14:00:42.123Z,5.73
2018-07-20T14:05:45.153Z,10.17
2018-07-20T14:10:48.300Z,6.37
2018-07-20T14:15:51.256Z,6.50
2018-07-20T14:20:54.358Z,11.53
2018-07-20T14:25:57.442Z,6.50
2018-07-20T14:31:00.557Z,5.90
2018-07-20T14:36:03.586Z,6.60
2018-07-20T14:41:06.661Z,6.57
2018-07-20T14:46:09.726Z,7.50
2018-07-20T14:51:12.854Z,7.30
2018-07-20T14:56:15.934Z,7.10
2018-07-20T15:01:19.117Z,7.37
2018-07-20T15:06:22.134Z,6.93
2018-07-20T15:11:25.252Z,6.57
2018-07-20T15:16:28.348Z,6.47
2018-07-20T15:21:31.435Z,7.10
2018-07-20T15:26:34.673Z,6.80
2018-07-20T15:31:37.729Z,7.13
2018-07-20T15:36:42.364Z,7.57
2018-07-20T15:41:45.802Z,6.50
2018-07-20T15:46:49.056Z,6.30
2018-07-20T15:53:35.461Z,7.00
2018-07-20T15:56:54.999Z,7.10
2018-07-20T16:01:57.998Z,7.10
2018-07-20T16:07:01.029Z,6.50
2018-07-20T16:12:04.074Z,7.40
2018-07-20T16:17:07.097Z,7.20
2018-07-20T16:22:10.100Z,7.97
2018-07-20T16:27:13.261Z,7.57
2018-07-20T16:32:16.310Z,7.13
2018-07-20T16:37:19.306Z,7.00
2018-07-20T16:42:22.418Z,7.27
2018-07-20T16:47:25.455Z,7.87
2018-07-20T16:52:28.478Z,7.33
2018-07-20T16:57:31.538Z,8.00
2018-07-20T17:02:35.427Z,7.60
2018-07-20T17:07:38.502Z,8.60
2018-07-20T17:12:41.523Z,8.53
2018-07-20T17:17:44.505Z,7.30
2018-07-20T17:22:47.583Z,8.17
2018-07-20T17:27:50.590Z,8.17
2018-07-20T17:32:53.604Z,7.80
2018-07-20T17:37:56.621Z,7.30
2018-07-20T17:42:59.710Z,7.70
2018-07-20T17:48:02.837Z,8.43
2018-07-20T17:53:05.941Z,7.33
2018-07-20T17:58:09.306Z,7.93
2018-07-20T18:03:12.349Z,8.63
2018-07-20T18:08:15.330Z,8.13
2018-07-20T18:13:18.347Z,8.17
2018-07-20T18:18:21.365Z,9.10
2018-07-20T18:23:24.383Z,7.57
2018-07-20T18:28:27.406Z,7.60
2018-07-20T18:33:30.386Z,8.40
2018-07-20T18:38:33.423Z,8.80
2018-07-20T18:43:36.438Z,8.87
2018-07-20T18:48:39.505Z,8.40
2018-07-20T18:53:44.153Z,8.43
2018-07-20T18:58:47.312Z,9.57
2018-07-20T19:03:50.460Z,8.90
2018-07-20T19:08:53.545Z,8.20
2018-07-20T19:13:56.717Z,8.17
2018-07-20T19:18:59.898Z,8.50
2018-07-20T19:24:03.020Z,8.10
2018-07-20T19:29:07.633Z,8.10
2018-07-20T19:34:10.753Z,8.70
2018-07-20T19:39:13.858Z,8.60
2018-07-20T19:44:16.862Z,9.00
2018-07-20T19:49:19.980Z,8.47
2018-07-20T19:54:22.986Z,8.40
2018-07-20T19:59:26.130Z,9.93
2018-07-20T20:04:29.153Z,8.93
2018-07-20T20:09:32.274Z,8.47
2018-07-20T20:14:35.307Z,7.80
2018-07-20T20:19:38.390Z,9.37
2018-07-20T20:24:41.437Z,9.00
2018-07-20T20:29:44.503Z,9.20
2018-07-20T20:34:47.603Z,8.57
2018-07-20T20:39:50.718Z,9.70
2018-07-20T20:44:53.726Z,9.63
2018-07-20T20:49:56.832Z,9.20
2018-07-20T20:54:59.921Z,10.00
2018-07-20T21:00:03.869Z,9.87
2018-07-20T21:05:06.968Z,8.80
2018-07-20T21:10:10.038Z,8.97
2018-07-20T21:15:13.150Z,8.10
2018-07-20T21:20:16.306Z,8.00
2018-07-20T21:25:19.339Z,8.33
2018-07-20T21:30:24.028Z,7.73
2018-07-20T21:35:27.153Z,7.10
2018-07-20T21:40:30.158Z,6.97
2018-07-20T21:45:33.187Z,6.30
2018-07-20T21:50:36.209Z,6.50
2018-07-20T21:55:39.225Z,6.17
2018-07-20T22:00:44.362Z,5.83
2018-07-20T22:05:47.377Z,5.17
2018-07-20T22:10:50.384Z,5.40
2018-07-20T22:15:53.385Z,5.33
2018-07-20T22:20:56.370Z,4.60
2018-07-20T22:25:59.413Z,4.57
2018-07-20T22:31:02.462Z,4.60
2018-07-20T22:36:05.518Z,4.47
2018-07-20T22:41:08.542Z,4.00
2018-07-20T22:46:11.525Z,4.40
2018-07-20T22:51:14.896Z,4.10
2018-07-20T22:56:17.877Z,4.60
2018-07-20T23:01:20.898Z,4.20
2018-07-20T23:06:23.953Z,3.90
2018-07-20T23:11:26.940Z,4.23
2018-07-20T23:16:29.965Z,3.60
2018-07-20T23:21:32.973Z,3.90
2018-07-20T23:26:35.970Z,3.97
2018-07-20T23:31:39.005Z,3.97
2018-07-20T23:36:41.974Z,3.60
2018-07-20T23:41:45.011Z,3.00
2018-07-20T23:46:48.070Z,3.77
2018-07-20T23:51:51.101Z,3.70
2018-07-20T23:56:54.117Z,3.20
